sensor_id;sensor_type;location;lat;lon;timestamp;temperature;humidity
4697;DHT22;2362;50.780;0.292;2022-08-05T00:01:19;18.40;99.90
4697;DHT22;2362;50.780;0.292;2022-08-05T00:03:46;18.50;99.90
4697;DHT22;2362;50.780;0.292;2022-08-05T00:06:12;18.50;99.90
4697;DHT22;2362;50.780;0.292;2022-08-05T00:08:38;18.40;99.90
4697;DHT22;2362;50.780;0.292;2022-08-05T00:11:09;18.50;99.90
4697;DHT22;2362;50.780;0.292;2022-08-05T00:13:38;18.40;99.90
4697;DHT22;2362;50.780;0.292;2022-08-05T00:16:08;18.40;99.90
4697;DHT22;2362;50.780;0.292;2022-08-05T00:18:35;18.30;99.90
4697;DHT22;2362;50.780;0.292;2022-08-05T00:21:01;18.20;99.90
4697;DHT22;2362;50.780;0.292;2022-08-05T00:23:26;18.20;99.90
4697;DHT22;2362;50.780;0.292;2022-08-05T00:25:52;18.20;99.90
4697;DHT22;2362;50.780;0.292;2022-08-05T00:28:19;18.10;99.90
4697;DHT22;2362;50.780;0.292;2022-08-05T00:30:45;18.00;99.90
4697;DHT22;2362;50.780;0.292;2022-08-05T00:33:10;17.90;99.90
4697;DHT22;2362;50.780;0.292;2022-08-05T00:35:36;17.80;99.90
4697;DHT22;2362;50.780;0.292;2022-08-05T00:38:02;17.70;99.90
4697;DHT22;2362;50.780;0.292;2022-08-05T00:40:27;17.60;99.90
4697;DHT22;2362;50.780;0.292;2022-08-05T00:42:54;17.60;99.90
4697;DHT22;2362;50.780;0.292;2022-08-05T00:45:20;17.70;99.90
4697;DHT22;2362;50.780;0.292;2022-08-05T00:47:46;17.70;99.90
4697;DHT22;2362;50.780;0.292;2022-08-05T00:50:11;17.70;99.90
4697;DHT22;2362;50.780;0.292;2022-08-05T00:52:38;17.70;99.90
4697;DHT22;2362;50.780;0.292;2022-08-05T00:55:04;17.80;99.90
4697;DHT22;2362;50.780;0.292;2022-08-05T00:57:29;17.80;99.90
4697;DHT22;2362;50.780;0.292;2022-08-05T00:59:55;17.90;99.90
4697;DHT22;2362;50.780;0.292;2022-08-05T01:02:21;17.90;99.90
4697;DHT22;2362;50.780;0.292;2022-08-05T01:04:46;18.00;99.90
4697;DHT22;2362;50.780;0.292;2022-08-05T01:07:12;18.00;99.90
4697;DHT22;2362;50.780;0.292;2022-08-05T01:09:38;18.00;99.90
4697;DHT22;2362;50.780;0.292;2022-08-05T01:12:10;18.00;99.90
4697;DHT22;2362;50.780;0.292;2022-08-05T01:14:48;18.00;99.90
4697;DHT22;2362;50.780;0.292;2022-08-05T01:17:46;18.00;99.90
4697;DHT22;2362;50.780;0.292;2022-08-05T01:20:52;18.00;99.90
4697;DHT22;2362;50.780;0.292;2022-08-05T01:26:37;18.10;99.90
4697;DHT22;2362;50.780;0.292;2022-08-05T01:29:18;18.10;99.90
4697;DHT22;2362;50.780;0.292;2022-08-05T01:31:51;18.10;99.90
4697;DHT22;2362;50.780;0.292;2022-08-05T01:34:32;18.10;99.90
4697;DHT22;2362;50.780;0.292;2022-08-05T01:37:09;18.10;99.90
4697;DHT22;2362;50.780;0.292;2022-08-05T01:39:38;18.10;99.90
4697;DHT22;2362;50.780;0.292;2022-08-05T01:42:06;18.00;99.90
4697;DHT22;2362;50.780;0.292;2022-08-05T01:44:34;18.00;99.90
4697;DHT22;2362;50.780;0.292;2022-08-05T01:47:01;18.00;99.90
4697;DHT22;2362;50.780;0.292;2022-08-05T01:49:28;18.00;99.90
4697;DHT22;2362;50.780;0.292;2022-08-05T01:51:57;18.00;99.90
4697;DHT22;2362;50.780;0.292;2022-08-05T01:54:34;18.00;99.90
4697;DHT22;2362;50.780;0.292;2022-08-05T01:57:02;18.00;99.90
4697;DHT22;2362;50.780;0.292;2022-08-05T01:59:31;17.90;99.90
4697;DHT22;2362;50.780;0.292;2022-08-05T02:01:59;17.90;99.90
4697;DHT22;2362;50.780;0.292;2022-08-05T02:04:28;17.80;99.90
4697;DHT22;2362;50.780;0.292;2022-08-05T02:06:55;17.80;99.90
4697;DHT22;2362;50.780;0.292;2022-08-05T02:09:21;17.70;99.90
4697;DHT22;2362;50.780;0.292;2022-08-05T02:14:36;17.60;99.90
4697;DHT22;2362;50.780;0.292;2022-08-05T02:17:07;17.60;99.90
4697;DHT22;2362;50.780;0.292;2022-08-05T02:19:37;17.60;99.90
4697;DHT22;2362;50.780;0.292;2022-08-05T02:22:25;17.60;99.90
4697;DHT22;2362;50.780;0.292;2022-08-05T02:24:55;17.60;99.90
4697;DHT22;2362;50.780;0.292;2022-08-05T02:27:23;17.60;99.90
4697;DHT22;2362;50.780;0.292;2022-08-05T02:29:49;17.60;99.90
4697;DHT22;2362;50.780;0.292;2022-08-05T02:32:19;17.60;99.90
4697;DHT22;2362;50.780;0.292;2022-08-05T02:34:46;17.60;99.90
4697;DHT22;2362;50.780;0.292;2022-08-05T02:37:13;17.60;99.90
4697;DHT22;2362;50.780;0.292;2022-08-05T02:39:40;17.50;99.90
4697;DHT22;2362;50.780;0.292;2022-08-05T02:42:07;17.50;99.90
4697;DHT22;2362;50.780;0.292;2022-08-05T02:44:35;17.50;99.90
4697;DHT22;2362;50.780;0.292;2022-08-05T02:47:04;17.50;99.90
4697;DHT22;2362;50.780;0.292;2022-08-05T02:49:41;17.40;99.90
4697;DHT22;2362;50.780;0.292;2022-08-05T02:52:13;17.40;99.90
4697;DHT22;2362;50.780;0.292;2022-08-05T02:54:41;17.40;99.90
4697;DHT22;2362;50.780;0.292;2022-08-05T02:57:13;17.40;99.90
4697;DHT22;2362;50.780;0.292;2022-08-05T02:59:45;17.30;99.90
4697;DHT22;2362;50.780;0.292;2022-08-05T03:02:17;17.20;99.90
4697;DHT22;2362;50.780;0.292;2022-08-05T03:04:44;17.20;99.90
4697;DHT22;2362;50.780;0.292;2022-08-05T03:07:11;17.10;99.90
4697;DHT22;2362;50.780;0.292;2022-08-05T03:09:39;17.10;99.90
4697;DHT22;2362;50.780;0.292;2022-08-05T03:12:06;17.10;99.90
4697;DHT22;2362;50.780;0.292;2022-08-05T03:14:32;17.10;99.90
4697;DHT22;2362;50.780;0.292;2022-08-05T03:16:59;17.00;99.90
4697;DHT22;2362;50.780;0.292;2022-08-05T03:19:25;17.00;99.90
4697;DHT22;2362;50.780;0.292;2022-08-05T03:21:51;17.00;99.90
4697;DHT22;2362;50.780;0.292;2022-08-05T03:24:18;16.90;99.90
4697;DHT22;2362;50.780;0.292;2022-08-05T03:26:44;16.90;99.90
4697;DHT22;2362;50.780;0.292;2022-08-05T03:29:10;16.90;99.90
4697;DHT22;2362;50.780;0.292;2022-08-05T03:31:35;16.90;99.90
4697;DHT22;2362;50.780;0.292;2022-08-05T03:34:03;16.90;99.90
4697;DHT22;2362;50.780;0.292;2022-08-05T03:36:29;16.90;99.90
4697;DHT22;2362;50.780;0.292;2022-08-05T03:38:56;17.00;99.90
4697;DHT22;2362;50.780;0.292;2022-08-05T03:41:22;17.00;99.90
4697;DHT22;2362;50.780;0.292;2022-08-05T03:43:49;17.00;99.90
4697;DHT22;2362;50.780;0.292;2022-08-05T03:46:14;16.90;99.90
4697;DHT22;2362;50.780;0.292;2022-08-05T03:48:40;16.90;99.90
4697;DHT22;2362;50.780;0.292;2022-08-05T03:51:23;16.90;99.90
4697;DHT22;2362;50.780;0.292;2022-08-05T03:53:56;16.80;99.90
4697;DHT22;2362;50.780;0.292;2022-08-05T03:56:32;16.80;99.90
4697;DHT22;2362;50.780;0.292;2022-08-05T03:59:05;16.70;99.90
4697;DHT22;2362;50.780;0.292;2022-08-05T04:01:35;16.60;99.90
4697;DHT22;2362;50.780;0.292;2022-08-05T04:04:02;16.50;99.90
4697;DHT22;2362;50.780;0.292;2022-08-05T04:06:29;16.50;99.90
4697;DHT22;2362;50.780;0.292;2022-08-05T04:08:55;16.40;99.90
4697;DHT22;2362;50.780;0.292;2022-08-05T04:11:21;16.30;99.90
4697;DHT22;2362;50.780;0.292;2022-08-05T04:13:47;16.20;99.90
4697;DHT22;2362;50.780;0.292;2022-08-05T04:16:14;16.20;99.90
4697;DHT22;2362;50.780;0.292;2022-08-05T04:18:39;16.10;99.90
4697;DHT22;2362;50.780;0.292;2022-08-05T04:21:06;16.10;99.90
4697;DHT22;2362;50.780;0.292;2022-08-05T04:23:33;16.00;99.90
4697;DHT22;2362;50.780;0.292;2022-08-05T04:26:00;16.00;99.90
4697;DHT22;2362;50.780;0.292;2022-08-05T04:28:26;16.00;99.90
4697;DHT22;2362;50.780;0.292;2022-08-05T04:30:51;16.00;99.90
4697;DHT22;2362;50.780;0.292;2022-08-05T04:33:17;15.90;99.90
4697;DHT22;2362;50.780;0.292;2022-08-05T04:35:43;15.90;99.90
4697;DHT22;2362;50.780;0.292;2022-08-05T04:38:09;15.80;99.90
4697;DHT22;2362;50.780;0.292;2022-08-05T04:40:37;15.80;99.90
4697;DHT22;2362;50.780;0.292;2022-08-05T04:43:03;15.70;99.90
4697;DHT22;2362;50.780;0.292;2022-08-05T04:45:29;15.70;99.90
4697;DHT22;2362;50.780;0.292;2022-08-05T04:48:03;15.60;99.90
4697;DHT22;2362;50.780;0.292;2022-08-05T04:50:29;15.60;99.90
4697;DHT22;2362;50.780;0.292;2022-08-05T04:52:54;15.60;99.90
4697;DHT22;2362;50.780;0.292;2022-08-05T04:55:20;15.50;99.90
4697;DHT22;2362;50.780;0.292;2022-08-05T04:57:46;15.50;99.90
4697;DHT22;2362;50.780;0.292;2022-08-05T05:00:12;15.40;99.90
4697;DHT22;2362;50.780;0.292;2022-08-05T05:02:37;15.50;99.90
4697;DHT22;2362;50.780;0.292;2022-08-05T05:05:04;15.50;99.90
4697;DHT22;2362;50.780;0.292;2022-08-05T05:07:30;15.60;99.90
4697;DHT22;2362;50.780;0.292;2022-08-05T05:09:56;15.60;99.90
4697;DHT22;2362;50.780;0.292;2022-08-05T05:12:22;15.60;99.90
4697;DHT22;2362;50.780;0.292;2022-08-05T05:14:48;15.60;99.90
4697;DHT22;2362;50.780;0.292;2022-08-05T05:17:14;15.60;99.90
4697;DHT22;2362;50.780;0.292;2022-08-05T05:19:40;15.60;99.90
4697;DHT22;2362;50.780;0.292;2022-08-05T05:22:06;15.60;99.90
4697;DHT22;2362;50.780;0.292;2022-08-05T05:24:31;15.60;99.90
4697;DHT22;2362;50.780;0.292;2022-08-05T05:26:57;15.60;99.90
4697;DHT22;2362;50.780;0.292;2022-08-05T05:29:23;15.60;99.90
4697;DHT22;2362;50.780;0.292;2022-08-05T05:31:48;15.60;99.90
4697;DHT22;2362;50.780;0.292;2022-08-05T05:34:14;15.60;99.90
4697;DHT22;2362;50.780;0.292;2022-08-05T05:36:40;15.60;99.90
4697;DHT22;2362;50.780;0.292;2022-08-05T05:39:05;15.60;99.90
4697;DHT22;2362;50.780;0.292;2022-08-05T05:41:31;15.60;99.90
4697;DHT22;2362;50.780;0.292;2022-08-05T05:43:58;15.70;99.90
4697;DHT22;2362;50.780;0.292;2022-08-05T05:46:23;15.90;99.90
4697;DHT22;2362;50.780;0.292;2022-08-05T05:48:49;16.50;99.90
4697;DHT22;2362;50.780;0.292;2022-08-05T05:51:19;17.40;99.90
4697;DHT22;2362;50.780;0.292;2022-08-05T05:53:45;18.20;99.90
4697;DHT22;2362;50.780;0.292;2022-08-05T05:56:10;18.40;99.90
4697;DHT22;2362;50.780;0.292;2022-08-05T05:58:36;18.90;99.90
4697;DHT22;2362;50.780;0.292;2022-08-05T06:01:02;18.90;99.90
4697;DHT22;2362;50.780;0.292;2022-08-05T06:03:27;18.70;99.90
4697;DHT22;2362;50.780;0.292;2022-08-05T06:05:53;19.00;99.90
4697;DHT22;2362;50.780;0.292;2022-08-05T06:08:18;19.30;99.90
4697;DHT22;2362;50.780;0.292;2022-08-05T06:10:44;19.20;99.90
4697;DHT22;2362;50.780;0.292;2022-08-05T06:13:10;19.20;99.90
4697;DHT22;2362;50.780;0.292;2022-08-05T06:15:35;19.50;99.90
4697;DHT22;2362;50.780;0.292;2022-08-05T06:18:01;19.40;99.90
4697;DHT22;2362;50.780;0.292;2022-08-05T06:20:26;19.70;99.90
4697;DHT22;2362;50.780;0.292;2022-08-05T06:22:52;20.20;99.90
4697;DHT22;2362;50.780;0.292;2022-08-05T06:25:18;20.20;99.90
4697;DHT22;2362;50.780;0.292;2022-08-05T06:27:43;19.90;99.90
4697;DHT22;2362;50.780;0.292;2022-08-05T06:30:09;19.70;99.90
4697;DHT22;2362;50.780;0.292;2022-08-05T06:32:41;19.90;99.90
4697;DHT22;2362;50.780;0.292;2022-08-05T06:35:07;20.00;99.90
4697;DHT22;2362;50.780;0.292;2022-08-05T06:37:33;19.90;99.90
4697;DHT22;2362;50.780;0.292;2022-08-05T06:39:58;20.00;99.90
4697;DHT22;2362;50.780;0.292;2022-08-05T06:42:24;20.00;99.90
4697;DHT22;2362;50.780;0.292;2022-08-05T06:44:50;19.80;99.90
4697;DHT22;2362;50.780;0.292;2022-08-05T06:47:15;19.90;99.90
4697;DHT22;2362;50.780;0.292;2022-08-05T06:49:41;19.80;99.90
4697;DHT22;2362;50.780;0.292;2022-08-05T06:52:06;19.80;99.90
4697;DHT22;2362;50.780;0.292;2022-08-05T06:54:32;20.30;99.90
4697;DHT22;2362;50.780;0.292;2022-08-05T06:56:58;20.50;99.90
4697;DHT22;2362;50.780;0.292;2022-08-05T06:59:23;20.60;99.90
4697;DHT22;2362;50.780;0.292;2022-08-05T07:01:49;20.50;99.90
4697;DHT22;2362;50.780;0.292;2022-08-05T07:04:14;20.80;99.90
4697;DHT22;2362;50.780;0.292;2022-08-05T07:06:40;20.30;99.90
4697;DHT22;2362;50.780;0.292;2022-08-05T07:09:06;20.50;99.90
4697;DHT22;2362;50.780;0.292;2022-08-05T07:11:33;20.70;99.90
4697;DHT22;2362;50.780;0.292;2022-08-05T07:13:59;20.90;99.90
4697;DHT22;2362;50.780;0.292;2022-08-05T07:16:43;21.50;99.90
4697;DHT22;2362;50.780;0.292;2022-08-05T07:19:19;21.40;99.90
4697;DHT22;2362;50.780;0.292;2022-08-05T07:21:48;21.30;99.90
4697;DHT22;2362;50.780;0.292;2022-08-05T07:24:15;21.40;99.90
4697;DHT22;2362;50.780;0.292;2022-08-05T07:26:42;21.20;99.90
4697;DHT22;2362;50.780;0.292;2022-08-05T07:29:08;21.20;99.90
4697;DHT22;2362;50.780;0.292;2022-08-05T07:31:34;21.40;99.90
4697;DHT22;2362;50.780;0.292;2022-08-05T07:34:00;21.60;99.90
4697;DHT22;2362;50.780;0.292;2022-08-05T07:36:26;21.80;99.90
4697;DHT22;2362;50.780;0.292;2022-08-05T07:38:52;21.20;99.90
4697;DHT22;2362;50.780;0.292;2022-08-05T07:41:19;21.30;99.90
4697;DHT22;2362;50.780;0.292;2022-08-05T07:43:44;21.70;99.90
4697;DHT22;2362;50.780;0.292;2022-08-05T07:46:11;21.90;99.90
4697;DHT22;2362;50.780;0.292;2022-08-05T07:48:36;21.90;99.90
4697;DHT22;2362;50.780;0.292;2022-08-05T07:51:02;21.40;99.90
4697;DHT22;2362;50.780;0.292;2022-08-05T07:53:28;21.30;99.90
4697;DHT22;2362;50.780;0.292;2022-08-05T07:55:54;20.90;99.90
4697;DHT22;2362;50.780;0.292;2022-08-05T07:58:19;21.10;99.90
4697;DHT22;2362;50.780;0.292;2022-08-05T08:00:45;21.10;99.90
4697;DHT22;2362;50.780;0.292;2022-08-05T08:03:12;21.00;99.90
4697;DHT22;2362;50.780;0.292;2022-08-05T08:05:39;21.20;99.90
4697;DHT22;2362;50.780;0.292;2022-08-05T08:08:11;22.20;99.90
4697;DHT22;2362;50.780;0.292;2022-08-05T08:10:37;22.30;99.90
4697;DHT22;2362;50.780;0.292;2022-08-05T08:13:03;21.80;99.90
4697;DHT22;2362;50.780;0.292;2022-08-05T08:15:29;22.10;99.90
4697;DHT22;2362;50.780;0.292;2022-08-05T08:17:55;22.10;99.90
4697;DHT22;2362;50.780;0.292;2022-08-05T08:20:21;22.30;99.90
4697;DHT22;2362;50.780;0.292;2022-08-05T08:22:55;22.60;99.90
4697;DHT22;2362;50.780;0.292;2022-08-05T08:25:21;23.10;99.80
4697;DHT22;2362;50.780;0.292;2022-08-05T08:27:46;22.30;99.90
4697;DHT22;2362;50.780;0.292;2022-08-05T08:30:13;22.40;99.90
4697;DHT22;2362;50.780;0.292;2022-08-05T08:32:39;22.60;99.90
4697;DHT22;2362;50.780;0.292;2022-08-05T08:35:05;22.70;99.90
4697;DHT22;2362;50.780;0.292;2022-08-05T08:37:32;22.60;99.90
4697;DHT22;2362;50.780;0.292;2022-08-05T08:39:58;22.00;99.90
4697;DHT22;2362;50.780;0.292;2022-08-05T08:42:25;22.50;99.90
4697;DHT22;2362;50.780;0.292;2022-08-05T08:44:56;22.70;99.90
4697;DHT22;2362;50.780;0.292;2022-08-05T08:47:24;22.60;99.90
4697;DHT22;2362;50.780;0.292;2022-08-05T08:49:52;21.90;99.90
4697;DHT22;2362;50.780;0.292;2022-08-05T08:52:29;21.80;99.90
4697;DHT22;2362;50.780;0.292;2022-08-05T08:54:55;22.00;99.90
4697;DHT22;2362;50.780;0.292;2022-08-05T08:57:21;22.20;99.80
4697;DHT22;2362;50.780;0.292;2022-08-05T08:59:49;22.30;99.40
4697;DHT22;2362;50.780;0.292;2022-08-05T09:02:15;21.90;99.90
4697;DHT22;2362;50.780;0.292;2022-08-05T09:04:43;21.90;99.90
4697;DHT22;2362;50.780;0.292;2022-08-05T09:07:09;22.00;99.90
4697;DHT22;2362;50.780;0.292;2022-08-05T09:09:36;21.90;99.80
4697;DHT22;2362;50.780;0.292;2022-08-05T09:12:03;21.80;99.90
4697;DHT22;2362;50.780;0.292;2022-08-05T09:14:30;21.50;99.90
4697;DHT22;2362;50.780;0.292;2022-08-05T09:16:58;21.40;99.90
4697;DHT22;2362;50.780;0.292;2022-08-05T09:19:24;21.00;99.70
4697;DHT22;2362;50.780;0.292;2022-08-05T09:21:49;20.80;99.90
4697;DHT22;2362;50.780;0.292;2022-08-05T09:24:16;21.00;99.70
4697;DHT22;2362;50.780;0.292;2022-08-05T09:26:45;21.00;99.70
4697;DHT22;2362;50.780;0.292;2022-08-05T09:29:12;20.70;99.90
4697;DHT22;2362;50.780;0.292;2022-08-05T09:31:38;20.60;99.50
4697;DHT22;2362;50.780;0.292;2022-08-05T09:34:08;20.70;99.10
4697;DHT22;2362;50.780;0.292;2022-08-05T09:36:46;20.70;99.90
4697;DHT22;2362;50.780;0.292;2022-08-05T09:39:18;20.70;99.50
4697;DHT22;2362;50.780;0.292;2022-08-05T09:42:02;20.50;99.10
4697;DHT22;2362;50.780;0.292;2022-08-05T09:44:40;20.50;98.80
4697;DHT22;2362;50.780;0.292;2022-08-05T09:47:07;20.30;99.60
4697;DHT22;2362;50.780;0.292;2022-08-05T09:49:45;20.40;99.40
4697;DHT22;2362;50.780;0.292;2022-08-05T10:02:38;20.50;99.10
4697;DHT22;2362;50.780;0.292;2022-08-05T10:05:14;20.60;98.40
4697;DHT22;2362;50.780;0.292;2022-08-05T10:10:16;20.70;99.00
4697;DHT22;2362;50.780;0.292;2022-08-05T10:12:46;20.50;97.50
4697;DHT22;2362;50.780;0.292;2022-08-05T10:17:41;20.70;97.60
4697;DHT22;2362;50.780;0.292;2022-08-05T10:20:07;20.70;97.60
4697;DHT22;2362;50.780;0.292;2022-08-05T10:22:38;20.80;97.50
4697;DHT22;2362;50.780;0.292;2022-08-05T10:25:05;21.00;97.80
4697;DHT22;2362;50.780;0.292;2022-08-05T10:27:30;21.10;97.70
4697;DHT22;2362;50.780;0.292;2022-08-05T10:29:56;20.90;97.80
4697;DHT22;2362;50.780;0.292;2022-08-05T10:32:22;21.00;97.50
4697;DHT22;2362;50.780;0.292;2022-08-05T10:34:48;20.90;97.20
4697;DHT22;2362;50.780;0.292;2022-08-05T10:37:14;20.90;97.70
4697;DHT22;2362;50.780;0.292;2022-08-05T10:39:44;20.90;98.00
4697;DHT22;2362;50.780;0.292;2022-08-05T10:42:20;20.90;97.20
4697;DHT22;2362;50.780;0.292;2022-08-05T10:44:46;21.00;96.60
4697;DHT22;2362;50.780;0.292;2022-08-05T10:47:13;20.90;96.60
4697;DHT22;2362;50.780;0.292;2022-08-05T10:50:04;21.00;96.60
4697;DHT22;2362;50.780;0.292;2022-08-05T10:52:38;21.10;96.80
4697;DHT22;2362;50.780;0.292;2022-08-05T10:55:07;21.30;96.00
4697;DHT22;2362;50.780;0.292;2022-08-05T10:57:34;21.30;96.10
4697;DHT22;2362;50.780;0.292;2022-08-05T11:00:18;21.40;94.50
4697;DHT22;2362;50.780;0.292;2022-08-05T11:05:30;21.40;94.10
4697;DHT22;2362;50.780;0.292;2022-08-05T11:08:05;21.40;94.10
4697;DHT22;2362;50.780;0.292;2022-08-05T11:10:32;21.50;94.10
4697;DHT22;2362;50.780;0.292;2022-08-05T11:12:59;21.40;93.70
4697;DHT22;2362;50.780;0.292;2022-08-05T11:15:30;21.30;93.30
4697;DHT22;2362;50.780;0.292;2022-08-05T11:18:28;21.20;94.50
4697;DHT22;2362;50.780;0.292;2022-08-05T11:20:55;21.30;94.40
4697;DHT22;2362;50.780;0.292;2022-08-05T11:23:35;21.40;94.80
4697;DHT22;2362;50.780;0.292;2022-08-05T11:26:07;21.60;94.00
4697;DHT22;2362;50.780;0.292;2022-08-05T11:33:38;21.50;94.40
4697;DHT22;2362;50.780;0.292;2022-08-05T11:36:18;21.40;94.30
4697;DHT22;2362;50.780;0.292;2022-08-05T11:43:59;21.60;94.20
4697;DHT22;2362;50.780;0.292;2022-08-05T11:46:26;21.40;93.20
4697;DHT22;2362;50.780;0.292;2022-08-05T11:48:53;21.50;93.20
4697;DHT22;2362;50.780;0.292;2022-08-05T11:51:19;21.60;93.70
4697;DHT22;2362;50.780;0.292;2022-08-05T11:53:46;21.60;93.80
4697;DHT22;2362;50.780;0.292;2022-08-05T11:56:12;21.60;94.80
4697;DHT22;2362;50.780;0.292;2022-08-05T11:58:40;21.70;94.30
4697;DHT22;2362;50.780;0.292;2022-08-05T12:03:47;21.70;93.70
4697;DHT22;2362;50.780;0.292;2022-08-05T12:06:16;21.90;93.90
4697;DHT22;2362;50.780;0.292;2022-08-05T12:11:13;22.10;92.70
4697;DHT22;2362;50.780;0.292;2022-08-05T12:16:24;21.90;92.60
4697;DHT22;2362;50.780;0.292;2022-08-05T12:18:51;21.90;92.90
4697;DHT22;2362;50.780;0.292;2022-08-05T12:21:23;21.90;92.70
4697;DHT22;2362;50.780;0.292;2022-08-05T12:26:18;22.00;93.00
4697;DHT22;2362;50.780;0.292;2022-08-05T12:28:44;22.10;92.60
4697;DHT22;2362;50.780;0.292;2022-08-05T12:31:09;22.20;92.50
4697;DHT22;2362;50.780;0.292;2022-08-05T12:33:35;22.20;92.40
4697;DHT22;2362;50.780;0.292;2022-08-05T12:36:03;22.20;92.90
4697;DHT22;2362;50.780;0.292;2022-08-05T12:38:29;22.30;92.40
4697;DHT22;2362;50.780;0.292;2022-08-05T12:40:56;22.10;92.40
4697;DHT22;2362;50.780;0.292;2022-08-05T12:43:21;22.00;92.60
4697;DHT22;2362;50.780;0.292;2022-08-05T12:45:54;22.00;93.00
4697;DHT22;2362;50.780;0.292;2022-08-05T12:48:21;22.20;93.30
4697;DHT22;2362;50.780;0.292;2022-08-05T12:51:13;22.10;92.60
4697;DHT22;2362;50.780;0.292;2022-08-05T12:53:43;22.00;93.20
4697;DHT22;2362;50.780;0.292;2022-08-05T12:56:17;22.20;93.10
4697;DHT22;2362;50.780;0.292;2022-08-05T12:58:43;22.10;93.10
4697;DHT22;2362;50.780;0.292;2022-08-05T13:01:09;22.00;92.60
4697;DHT22;2362;50.780;0.292;2022-08-05T13:03:36;22.00;92.80
4697;DHT22;2362;50.780;0.292;2022-08-05T13:06:05;22.10;92.70
4697;DHT22;2362;50.780;0.292;2022-08-05T13:08:31;22.10;92.20
4697;DHT22;2362;50.780;0.292;2022-08-05T13:11:00;22.10;92.20
4697;DHT22;2362;50.780;0.292;2022-08-05T13:13:26;22.10;91.50
4697;DHT22;2362;50.780;0.292;2022-08-05T13:15:53;22.10;91.70
4697;DHT22;2362;50.780;0.292;2022-08-05T13:18:19;22.10;92.00
4697;DHT22;2362;50.780;0.292;2022-08-05T13:20:44;22.20;91.60
4697;DHT22;2362;50.780;0.292;2022-08-05T13:23:10;22.30;91.70
4697;DHT22;2362;50.780;0.292;2022-08-05T13:25:36;22.40;91.70
4697;DHT22;2362;50.780;0.292;2022-08-05T13:28:02;22.40;92.30
4697;DHT22;2362;50.780;0.292;2022-08-05T13:30:29;22.30;91.60
4697;DHT22;2362;50.780;0.292;2022-08-05T13:32:55;22.20;91.60
4697;DHT22;2362;50.780;0.292;2022-08-05T13:35:21;22.10;92.70
4697;DHT22;2362;50.780;0.292;2022-08-05T13:37:47;22.00;92.50
4697;DHT22;2362;50.780;0.292;2022-08-05T13:40:13;21.70;92.20
4697;DHT22;2362;50.780;0.292;2022-08-05T13:42:39;21.70;93.20
4697;DHT22;2362;50.780;0.292;2022-08-05T13:45:06;21.90;92.20
4697;DHT22;2362;50.780;0.292;2022-08-05T13:47:33;22.10;92.80
4697;DHT22;2362;50.780;0.292;2022-08-05T13:50:00;22.30;92.10
4697;DHT22;2362;50.780;0.292;2022-08-05T13:52:26;22.40;93.50
4697;DHT22;2362;50.780;0.292;2022-08-05T13:54:52;22.60;92.10
4697;DHT22;2362;50.780;0.292;2022-08-05T13:57:18;22.60;92.60
4697;DHT22;2362;50.780;0.292;2022-08-05T13:59:44;22.50;91.80
4697;DHT22;2362;50.780;0.292;2022-08-05T14:02:11;22.40;92.30
4697;DHT22;2362;50.780;0.292;2022-08-05T14:04:39;22.60;91.30
4697;DHT22;2362;50.780;0.292;2022-08-05T14:07:35;22.50;90.90
4697;DHT22;2362;50.780;0.292;2022-08-05T14:10:07;22.40;91.30
4697;DHT22;2362;50.780;0.292;2022-08-05T14:12:34;22.30;91.20
4697;DHT22;2362;50.780;0.292;2022-08-05T14:15:00;22.20;91.70
4697;DHT22;2362;50.780;0.292;2022-08-05T14:17:26;22.20;91.40
4697;DHT22;2362;50.780;0.292;2022-08-05T14:19:52;22.10;91.50
4697;DHT22;2362;50.780;0.292;2022-08-05T14:22:19;22.10;91.70
4697;DHT22;2362;50.780;0.292;2022-08-05T14:24:44;22.30;91.60
4697;DHT22;2362;50.780;0.292;2022-08-05T14:27:10;22.50;91.50
4697;DHT22;2362;50.780;0.292;2022-08-05T14:29:36;22.50;91.00
4697;DHT22;2362;50.780;0.292;2022-08-05T14:32:01;22.60;91.40
4697;DHT22;2362;50.780;0.292;2022-08-05T14:34:27;22.80;91.60
4697;DHT22;2362;50.780;0.292;2022-08-05T14:36:53;22.80;91.50
4697;DHT22;2362;50.780;0.292;2022-08-05T14:39:18;22.90;91.60
4697;DHT22;2362;50.780;0.292;2022-08-05T14:41:44;23.00;91.40
4697;DHT22;2362;50.780;0.292;2022-08-05T14:44:10;23.10;91.30
4697;DHT22;2362;50.780;0.292;2022-08-05T14:46:35;23.20;91.30
4697;DHT22;2362;50.780;0.292;2022-08-05T14:49:03;23.00;91.10
4697;DHT22;2362;50.780;0.292;2022-08-05T14:51:28;23.10;91.20
4697;DHT22;2362;50.780;0.292;2022-08-05T14:53:54;23.10;91.30
4697;DHT22;2362;50.780;0.292;2022-08-05T14:56:20;23.00;91.20
4697;DHT22;2362;50.780;0.292;2022-08-05T14:58:46;22.80;90.70
4697;DHT22;2362;50.780;0.292;2022-08-05T15:01:12;22.60;90.40
4697;DHT22;2362;50.780;0.292;2022-08-05T15:03:37;22.70;90.90
4697;DHT22;2362;50.780;0.292;2022-08-05T15:06:03;23.00;90.20
4697;DHT22;2362;50.780;0.292;2022-08-05T15:08:29;23.20;90.10
4697;DHT22;2362;50.780;0.292;2022-08-05T15:10:55;23.30;89.70
4697;DHT22;2362;50.780;0.292;2022-08-05T15:13:21;23.40;90.20
4697;DHT22;2362;50.780;0.292;2022-08-05T15:15:46;23.40;90.30
4697;DHT22;2362;50.780;0.292;2022-08-05T15:18:12;23.20;90.30
4697;DHT22;2362;50.780;0.292;2022-08-05T15:20:38;23.10;90.30
4697;DHT22;2362;50.780;0.292;2022-08-05T15:23:08;23.00;88.80
4697;DHT22;2362;50.780;0.292;2022-08-05T15:25:36;22.80;89.80
4697;DHT22;2362;50.780;0.292;2022-08-05T15:28:02;22.90;89.40
4697;DHT22;2362;50.780;0.292;2022-08-05T15:30:28;22.90;89.10
4697;DHT22;2362;50.780;0.292;2022-08-05T15:32:56;22.90;89.20
4697;DHT22;2362;50.780;0.292;2022-08-05T15:35:22;23.10;90.20
4697;DHT22;2362;50.780;0.292;2022-08-05T15:37:48;23.20;89.10
4697;DHT22;2362;50.780;0.292;2022-08-05T15:40:14;23.20;90.00
4697;DHT22;2362;50.780;0.292;2022-08-05T15:42:40;23.30;88.80
4697;DHT22;2362;50.780;0.292;2022-08-05T15:45:06;23.40;88.40
4697;DHT22;2362;50.780;0.292;2022-08-05T15:47:31;23.40;88.50
4697;DHT22;2362;50.780;0.292;2022-08-05T15:49:57;23.40;88.20
4697;DHT22;2362;50.780;0.292;2022-08-05T15:52:23;23.50;88.80
4697;DHT22;2362;50.780;0.292;2022-08-05T15:54:50;23.40;87.70
4697;DHT22;2362;50.780;0.292;2022-08-05T15:57:17;23.40;87.90
4697;DHT22;2362;50.780;0.292;2022-08-05T15:59:43;23.20;87.70
4697;DHT22;2362;50.780;0.292;2022-08-05T16:02:09;23.00;87.20
4697;DHT22;2362;50.780;0.292;2022-08-05T16:04:34;23.10;87.40
4697;DHT22;2362;50.780;0.292;2022-08-05T16:07:00;23.10;87.70
4697;DHT22;2362;50.780;0.292;2022-08-05T16:09:26;23.10;88.60
4697;DHT22;2362;50.780;0.292;2022-08-05T16:11:52;23.10;88.00
4697;DHT22;2362;50.780;0.292;2022-08-05T16:14:18;22.90;88.50
4697;DHT22;2362;50.780;0.292;2022-08-05T16:16:44;22.80;87.90
4697;DHT22;2362;50.780;0.292;2022-08-05T16:19:10;22.80;89.30
4697;DHT22;2362;50.780;0.292;2022-08-05T16:21:36;22.80;88.80
4697;DHT22;2362;50.780;0.292;2022-08-05T16:24:02;22.80;89.50
4697;DHT22;2362;50.780;0.292;2022-08-05T16:26:27;22.80;89.60
4697;DHT22;2362;50.780;0.292;2022-08-05T16:28:53;22.90;89.70
4697;DHT22;2362;50.780;0.292;2022-08-05T16:31:19;22.90;88.20
4697;DHT22;2362;50.780;0.292;2022-08-05T16:33:45;22.90;87.20
4697;DHT22;2362;50.780;0.292;2022-08-05T16:36:10;22.90;86.70
4697;DHT22;2362;50.780;0.292;2022-08-05T16:38:36;22.90;86.40
4697;DHT22;2362;50.780;0.292;2022-08-05T16:41:02;22.80;86.90
4697;DHT22;2362;50.780;0.292;2022-08-05T16:43:32;22.80;88.10
4697;DHT22;2362;50.780;0.292;2022-08-05T16:46:00;22.70;86.60
4697;DHT22;2362;50.780;0.292;2022-08-05T16:48:26;22.60;87.60
4697;DHT22;2362;50.780;0.292;2022-08-05T16:50:52;22.60;87.00